createdAt,value
2023-05-17T00:00:12.524Z,20.98
2023-05-17T00:02:39.991Z,17.38
2023-05-17T00:05:07.811Z,22.58
2023-05-17T00:07:35.307Z,18.80
2023-05-17T00:10:03.219Z,17.83
2023-05-17T00:12:30.736Z,30.02
2023-05-17T00:14:58.158Z,18.88
2023-05-17T00:17:26.117Z,20.48
2023-05-17T00:19:53.717Z,20.65
2023-05-17T00:22:21.189Z,20.40
2023-05-17T00:24:48.720Z,24.02
2023-05-17T00:27:16.161Z,24.85
2023-05-17T00:29:43.510Z,25.42
2023-05-17T00:32:11.013Z,25.88
2023-05-17T00:34:38.484Z,25.30
2023-05-17T00:37:05.990Z,22.45
2023-05-17T00:39:33.433Z,20.25
2023-05-17T00:42:01.678Z,21.77
2023-05-17T00:44:29.088Z,22.83
2023-05-17T00:46:57.602Z,24.63
2023-05-17T00:49:25.494Z,23.98
2023-05-17T00:51:53.417Z,26.23
2023-05-17T00:54:21.013Z,22.40
2023-05-17T00:56:49.027Z,21.13
2023-05-17T00:59:16.682Z,19.80
2023-05-17T01:01:44.494Z,18.60
2023-05-17T01:04:12.117Z,22.20
2023-05-17T01:06:39.907Z,19.83
2023-05-17T01:09:08.371Z,19.73
2023-05-17T01:11:43.500Z,26.13
2023-05-17T01:14:37.845Z,21.50
2023-05-17T01:17:17.301Z,28.40
2023-05-17T01:20:11.011Z,27.02
2023-05-17T01:22:46.114Z,27.90
2023-05-17T01:25:29.977Z,20.13
2023-05-17T01:28:00.530Z,23.33
2023-05-17T01:30:29.918Z,29.27
2023-05-17T01:32:59.195Z,25.95
2023-05-17T01:35:27.178Z,30.95
2023-05-17T01:37:55.037Z,23.58
2023-05-17T01:40:22.716Z,22.58
2023-05-17T01:42:57.641Z,25.60
2023-05-17T01:45:26.951Z,23.52
2023-05-17T01:48:10.467Z,26.13
2023-05-17T01:50:39.405Z,23.55
2023-05-17T01:53:11.111Z,20.92
2023-05-17T01:55:44.408Z,24.10
2023-05-17T01:58:13.557Z,21.08
2023-05-17T02:00:43.155Z,24.45
2023-05-17T02:03:17.481Z,25.77
2023-05-17T02:05:45.033Z,26.92
2023-05-17T02:08:12.910Z,30.73
2023-05-17T02:10:40.650Z,24.25
2023-05-17T02:13:08.177Z,20.55
2023-05-17T02:15:35.719Z,31.33
2023-05-17T02:18:03.540Z,24.33
2023-05-17T02:20:31.444Z,25.73
2023-05-17T02:22:59.049Z,23.70
2023-05-17T02:25:26.710Z,23.50
2023-05-17T02:27:54.536Z,26.90
2023-05-17T02:30:22.465Z,27.40
2023-05-17T02:32:50.277Z,29.00
2023-05-17T02:35:17.927Z,26.95
2023-05-17T02:37:45.529Z,24.90
2023-05-17T02:40:13.365Z,25.30
2023-05-17T02:42:40.798Z,23.30
2023-05-17T02:45:08.667Z,22.42
2023-05-17T02:47:36.272Z,24.83
2023-05-17T02:50:03.963Z,28.55
2023-05-17T02:52:31.489Z,29.50
2023-05-17T02:54:59.030Z,24.98
2023-05-17T02:57:26.654Z,25.42
2023-05-17T02:59:54.055Z,24.40
2023-05-17T03:02:21.499Z,27.80
2023-05-17T03:04:49.124Z,24.63
2023-05-17T03:07:16.519Z,24.30
2023-05-17T03:09:43.981Z,24.25
2023-05-17T03:12:11.461Z,29.27
2023-05-17T03:14:39.067Z,22.17
2023-05-17T03:17:06.467Z,27.58
2023-05-17T03:19:33.862Z,20.88
2023-05-17T03:22:01.296Z,20.27
2023-05-17T03:24:28.735Z,22.92
2023-05-17T03:26:56.412Z,26.88
2023-05-17T03:29:23.811Z,22.77
2023-05-17T03:31:51.362Z,25.63
2023-05-17T03:34:18.712Z,23.88
2023-05-17T03:36:46.091Z,24.77
2023-05-17T03:39:13.609Z,23.55
2023-05-17T03:41:42.225Z,19.15
2023-05-17T03:44:09.674Z,23.80
2023-05-17T03:46:37.128Z,22.40
2023-05-17T03:49:04.551Z,22.02
2023-05-17T03:51:32.028Z,23.25
2023-05-17T03:54:00.601Z,28.05
2023-05-17T03:56:28.149Z,24.70
2023-05-17T03:58:55.553Z,23.20
2023-05-17T04:01:22.967Z,32.42
2023-05-17T04:03:51.521Z,20.48
2023-05-17T04:06:19.045Z,23.55
2023-05-17T04:08:47.733Z,22.50
2023-05-17T04:11:15.305Z,21.73
2023-05-17T04:13:43.581Z,24.77
2023-05-17T04:16:13.771Z,28.13
2023-05-17T04:18:41.346Z,29.67
2023-05-17T04:21:08.857Z,23.08
2023-05-17T04:23:37.440Z,31.58
2023-05-17T04:26:06.204Z,22.00
2023-05-17T04:28:35.243Z,25.25
2023-05-17T04:31:02.788Z,24.83
2023-05-17T04:33:31.236Z,26.27
2023-05-17T04:35:58.650Z,24.98
2023-05-17T04:38:26.118Z,25.98
2023-05-17T04:41:14.015Z,24.58
2023-05-17T04:43:42.085Z,22.52
2023-05-17T04:46:09.832Z,22.30
2023-05-17T04:48:39.021Z,21.45
2023-05-17T04:51:06.813Z,22.77
2023-05-17T04:53:35.753Z,19.45
2023-05-17T04:56:04.215Z,20.52
2023-05-17T04:58:32.483Z,22.58
2023-05-17T05:00:59.884Z,24.00
2023-05-17T05:03:28.169Z,23.55
2023-05-17T05:05:55.730Z,24.33
2023-05-17T05:08:23.183Z,26.60
2023-05-17T05:10:51.852Z,24.17
2023-05-17T05:13:19.273Z,24.20
2023-05-17T05:15:46.855Z,16.10
2023-05-17T05:18:14.443Z,24.08
2023-05-17T05:20:43.834Z,25.48
2023-05-17T05:23:11.273Z,23.65
2023-05-17T05:25:38.860Z,24.48
2023-05-17T05:28:06.602Z,19.05
2023-05-17T05:30:34.285Z,23.95
2023-05-17T05:33:01.791Z,23.17
2023-05-17T05:35:30.542Z,19.15
2023-05-17T05:37:58.477Z,21.77
2023-05-17T05:40:26.025Z,26.35
2023-05-17T05:42:53.805Z,23.17
2023-05-17T05:45:21.876Z,23.48
2023-05-17T05:47:49.539Z,23.98
2023-05-17T05:50:17.138Z,25.35
2023-05-17T05:52:44.566Z,28.02
2023-05-17T05:55:12.248Z,22.65
2023-05-17T05:57:39.821Z,20.33
2023-05-17T06:00:08.070Z,27.00
2023-05-17T06:02:36.198Z,24.88
2023-05-17T06:05:03.958Z,23.00
2023-05-17T06:07:31.549Z,22.02
2023-05-17T06:09:58.940Z,24.17
2023-05-17T06:12:26.805Z,23.77
2023-05-17T06:14:57.221Z,22.50
2023-05-17T06:17:30.347Z,25.52
2023-05-17T06:19:57.951Z,22.92
2023-05-17T06:22:31.573Z,22.40
2023-05-17T06:24:59.096Z,20.58
2023-05-17T06:27:35.167Z,26.77
2023-05-17T06:30:06.465Z,22.13
2023-05-17T06:32:35.176Z,13.68
2023-05-17T06:35:02.847Z,15.85
2023-05-17T06:37:30.414Z,13.00
2023-05-17T06:40:16.668Z,18.58
2023-05-17T06:42:44.703Z,18.50
2023-05-17T06:45:12.501Z,16.40
2023-05-17T06:47:40.143Z,19.52
2023-05-17T06:50:08.890Z,20.67
2023-05-17T06:52:36.702Z,18.92
2023-05-17T06:55:05.770Z,16.50
2023-05-17T06:57:37.976Z,18.65
2023-05-17T07:00:11.290Z,18.05
2023-05-17T07:02:39.004Z,14.73
2023-05-17T07:10:20.139Z,14.43
2023-05-17T07:12:48.052Z,13.45
2023-05-17T07:15:21.671Z,14.55
2023-05-17T07:17:49.225Z,12.35
2023-05-17T07:20:16.771Z,21.55
2023-05-17T07:22:56.504Z,12.98
2023-05-17T07:25:23.887Z,16.63
2023-05-17T07:27:51.545Z,15.13
2023-05-17T07:30:19.278Z,15.93
2023-05-17T07:32:46.959Z,18.98
2023-05-17T07:35:14.951Z,20.05
2023-05-17T07:37:44.272Z,14.63
2023-05-17T07:40:13.085Z,15.68
2023-05-17T07:42:42.232Z,15.57
2023-05-17T07:45:11.287Z,12.93
2023-05-17T07:48:05.052Z,15.60
2023-05-17T07:50:33.119Z,14.25
2023-05-17T07:53:00.668Z,12.73
2023-05-17T07:55:28.321Z,16.80
2023-05-17T07:57:55.818Z,14.68
2023-05-17T08:00:24.023Z,13.07
2023-05-17T08:02:51.851Z,16.33
2023-05-17T08:05:19.435Z,13.95
2023-05-17T08:07:46.800Z,12.00
2023-05-17T08:10:14.166Z,13.13
2023-05-17T08:12:41.594Z,16.17
2023-05-17T08:15:09.659Z,10.70
2023-05-17T08:17:37.412Z,15.88
2023-05-17T08:20:08.103Z,10.20
2023-05-17T08:22:35.655Z,13.85
2023-05-17T08:25:04.861Z,12.23
2023-05-17T08:27:32.695Z,12.45
2023-05-17T08:30:00.651Z,14.15
2023-05-17T08:32:28.987Z,9.32
2023-05-17T08:34:57.116Z,8.98
2023-05-17T08:37:24.844Z,10.85
2023-05-17T08:40:02.453Z,8.57
2023-05-17T08:42:31.045Z,10.75
2023-05-17T08:45:01.364Z,9.95
2023-05-17T08:47:35.896Z,13.00
2023-05-17T08:50:07.820Z,9.95
2023-05-17T08:52:36.891Z,9.63
2023-05-17T08:55:07.257Z,10.20
2023-05-17T08:57:37.856Z,8.63
2023-05-17T09:00:15.295Z,8.05
2023-05-17T09:02:43.232Z,11.32
2023-05-17T09:05:11.368Z,8.68
2023-05-17T09:07:38.846Z,7.38
2023-05-17T09:10:06.957Z,11.25
2023-05-17T09:12:39.695Z,10.82
2023-05-17T09:15:18.742Z,11.18
2023-05-17T09:17:53.973Z,10.30
2023-05-17T09:20:29.129Z,9.18
2023-05-17T09:22:56.664Z,10.02
2023-05-17T09:25:26.585Z,8.75
2023-05-17T09:27:55.468Z,7.28
2023-05-17T09:30:37.389Z,6.25
2023-05-17T09:33:27.298Z,6.75
2023-05-17T09:35:54.772Z,7.90
2023-05-17T09:38:29.910Z,11.02
2023-05-17T09:41:02.985Z,10.35
2023-05-17T09:43:47.707Z,7.97
2023-05-17T09:46:17.575Z,9.63
2023-05-17T09:48:48.230Z,6.18
2023-05-17T09:51:40.084Z,13.52
2023-05-17T09:54:12.719Z,7.13
2023-05-17T09:59:14.957Z,12.25
2023-05-17T10:01:46.144Z,8.45
2023-05-17T10:04:14.990Z,8.00
2023-05-17T10:09:24.233Z,6.85
2023-05-17T10:11:55.439Z,8.05
2023-05-17T10:14:36.741Z,8.95
2023-05-17T10:17:23.858Z,9.93
2023-05-17T10:19:55.174Z,9.82
2023-05-17T10:22:37.760Z,8.07
2023-05-17T10:25:13.738Z,7.05
2023-05-17T10:27:51.121Z,14.25
2023-05-17T10:30:19.215Z,8.02
2023-05-17T10:32:50.356Z,8.45
2023-05-17T10:35:29.664Z,9.15
2023-05-17T10:37:58.904Z,9.48
2023-05-17T10:40:28.290Z,12.10
2023-05-17T10:42:58.214Z,8.70
2023-05-17T10:45:27.854Z,8.25
2023-05-17T10:47:58.908Z,8.77
2023-05-17T10:50:28.552Z,7.53
2023-05-17T10:53:02.632Z,6.43
2023-05-17T10:55:41.998Z,7.40
2023-05-17T10:58:43.728Z,10.07
2023-05-17T11:01:11.558Z,12.45
2023-05-17T11:03:41.258Z,7.90
2023-05-17T11:06:34.008Z,10.60
2023-05-17T11:09:23.969Z,8.25
2023-05-17T11:12:34.497Z,13.10
2023-05-17T11:15:24.051Z,10.48
2023-05-17T11:17:57.555Z,8.07
2023-05-17T11:20:31.693Z,11.18
2023-05-17T11:23:05.102Z,6.30
2023-05-17T11:25:36.827Z,6.97
2023-05-17T11:28:22.751Z,6.53
2023-05-17T11:30:54.136Z,7.13
2023-05-17T11:33:38.907Z,9.55
2023-05-17T11:36:11.962Z,8.48
2023-05-17T11:38:39.487Z,9.02
2023-05-17T11:43:53.662Z,9.18
2023-05-17T11:46:23.152Z,10.07
2023-05-17T11:49:01.195Z,8.85
2023-05-17T11:51:29.146Z,9.52
2023-05-17T11:53:57.368Z,10.95
2023-05-17T11:56:35.545Z,7.40
2023-05-17T11:59:04.230Z,6.90
2023-05-17T12:01:45.844Z,10.75
2023-05-17T12:04:13.523Z,12.70
2023-05-17T12:06:41.288Z,10.90
2023-05-17T12:09:13.148Z,8.65
2023-05-17T12:11:42.557Z,9.67
2023-05-17T12:14:13.527Z,8.07
2023-05-17T12:16:42.401Z,9.10
2023-05-17T12:19:22.458Z,10.35
2023-05-17T12:21:51.258Z,12.27
2023-05-17T12:24:23.467Z,12.32
2023-05-17T12:26:51.136Z,10.77
2023-05-17T12:29:25.186Z,11.85
2023-05-17T12:31:55.543Z,7.63
2023-05-17T12:34:25.544Z,10.77
2023-05-17T12:36:54.918Z,13.10
2023-05-17T12:39:25.725Z,12.27
2023-05-17T12:41:57.372Z,10.35
2023-05-17T12:44:26.376Z,7.97
2023-05-17T12:46:56.496Z,9.73
2023-05-17T12:49:24.209Z,16.90
2023-05-17T12:51:51.649Z,10.32
2023-05-17T12:54:26.508Z,10.80
2023-05-17T12:56:53.963Z,10.77
2023-05-17T12:59:22.050Z,12.95
2023-05-17T13:01:55.616Z,9.68
2023-05-17T13:04:32.048Z,12.70
2023-05-17T13:07:04.043Z,9.40
2023-05-17T13:09:33.495Z,12.68
2023-05-17T13:12:10.085Z,11.10
2023-05-17T13:14:37.706Z,9.93
2023-05-17T13:17:06.804Z,11.07
2023-05-17T13:19:36.195Z,12.63
2023-05-17T13:22:06.888Z,11.00
2023-05-17T13:24:38.507Z,13.45
2023-05-17T13:27:10.523Z,9.23
2023-05-17T13:29:40.730Z,13.25
2023-05-17T13:32:10.315Z,11.73
2023-05-17T13:34:37.726Z,11.10
2023-05-17T13:37:08.695Z,12.55
2023-05-17T13:39:42.088Z,12.63
2023-05-17T13:42:10.924Z,9.57
2023-05-17T13:44:48.429Z,14.60
2023-05-17T13:47:16.094Z,10.00
2023-05-17T13:49:43.574Z,12.07
2023-05-17T13:52:19.957Z,12.55
2023-05-17T13:54:47.464Z,10.18
2023-05-17T13:57:14.958Z,13.25
2023-05-17T13:59:45.524Z,10.98
2023-05-17T14:02:48.184Z,8.35
2023-05-17T14:05:15.628Z,11.98
2023-05-17T14:07:44.004Z,12.73
2023-05-17T14:10:14.574Z,11.50
2023-05-17T14:12:42.122Z,11.60
2023-05-17T14:15:10.761Z,13.07
2023-05-17T14:17:38.431Z,16.10
2023-05-17T14:20:06.686Z,12.55
2023-05-17T14:22:34.236Z,15.90
2023-05-17T14:25:01.700Z,12.85
2023-05-17T14:27:29.057Z,10.45
2023-05-17T14:29:56.750Z,13.02
2023-05-17T14:32:24.208Z,10.75
2023-05-17T14:34:51.603Z,10.45
2023-05-17T14:37:19.547Z,12.73
2023-05-17T14:40:05.325Z,10.43
2023-05-17T14:42:34.082Z,11.57
2023-05-17T14:45:05.009Z,12.55
2023-05-17T14:47:35.136Z,12.05
2023-05-17T14:50:04.046Z,13.00
2023-05-17T14:52:33.678Z,12.70
2023-05-17T14:55:01.387Z,13.20
2023-05-17T14:57:28.833Z,13.43
2023-05-17T14:59:56.411Z,9.52
2023-05-17T15:02:24.056Z,12.90
2023-05-17T15:04:51.740Z,13.27
2023-05-17T15:07:19.136Z,13.30
2023-05-17T15:09:47.450Z,14.50
2023-05-17T15:12:18.016Z,11.95
2023-05-17T15:14:46.576Z,13.43
2023-05-17T15:17:15.544Z,11.63
2023-05-17T15:19:43.000Z,11.38
2023-05-17T15:22:11.830Z,12.98
2023-05-17T15:24:40.611Z,13.25
2023-05-17T15:27:08.132Z,14.90
2023-05-17T15:29:38.939Z,16.13
2023-05-17T15:32:07.180Z,12.00
2023-05-17T15:34:34.929Z,11.27
2023-05-17T15:37:02.565Z,15.23
2023-05-17T15:39:29.986Z,15.65
2023-05-17T15:41:57.372Z,11.63
2023-05-17T15:44:25.368Z,14.00
2023-05-17T15:46:53.246Z,14.45
2023-05-17T15:49:20.710Z,13.73
2023-05-17T15:51:48.259Z,12.70
2023-05-17T15:54:15.851Z,10.02
2023-05-17T15:56:43.191Z,17.60
2023-05-17T15:59:10.598Z,12.82
2023-05-17T16:01:38.131Z,12.98
2023-05-17T16:04:05.942Z,13.07
2023-05-17T16:06:36.200Z,15.13
2023-05-17T16:09:04.004Z,12.75
2023-05-17T16:11:31.399Z,14.13
2023-05-17T16:13:59.239Z,11.45
2023-05-17T16:16:26.712Z,10.85
2023-05-17T16:18:54.330Z,11.65
2023-05-17T16:21:22.131Z,12.75
2023-05-17T16:23:49.584Z,14.13
2023-05-17T16:26:16.989Z,15.50
2023-05-17T16:28:44.996Z,13.80
2023-05-17T16:31:12.616Z,14.65
2023-05-17T16:33:41.491Z,14.93
2023-05-17T16:36:09.086Z,14.25
2023-05-17T16:38:36.884Z,16.75
2023-05-17T16:41:04.285Z,19.83
2023-05-17T16:43:31.932Z,17.60
2023-05-17T16:45:59.479Z,15.30
2023-05-17T16:48:27.215Z,12.68
2023-05-17T16:50:55.665Z,13.52
2023-05-17T16:53:23.440Z,11.90
2023-05-17T16:55:50.835Z,13.65
2023-05-17T16:58:18.774Z,14.60
2023-05-17T17:00:47.347Z,14.40
2023-05-17T17:03:14.776Z,14.25
2023-05-17T17:05:42.161Z,14.00
2023-05-17T17:08:09.492Z,16.73
2023-05-17T17:10:37.004Z,14.48
2023-05-17T17:13:10.014Z,15.20
2023-05-17T17:15:37.357Z,13.35
2023-05-17T17:18:04.842Z,16.70
2023-05-17T17:20:32.209Z,15.48
2023-05-17T17:22:59.571Z,13.30
2023-05-17T17:25:27.116Z,15.38
2023-05-17T17:27:54.605Z,14.80
2023-05-17T17:30:26.508Z,16.58
2023-05-17T17:32:54.144Z,12.73
2023-05-17T17:35:21.665Z,16.17
2023-05-17T17:37:49.342Z,13.77
2023-05-17T17:40:17.710Z,17.83
2023-05-17T17:42:45.330Z,14.52
2023-05-17T17:45:12.994Z,13.98
2023-05-17T17:47:42.274Z,18.30
2023-05-17T17:50:11.601Z,17.70
2023-05-17T17:52:39.131Z,18.50
2023-05-17T17:55:07.658Z,14.65
2023-05-17T17:57:35.206Z,14.20
2023-05-17T18:00:03.053Z,14.27
2023-05-17T18:02:30.475Z,13.52
2023-05-17T18:04:58.238Z,17.85
2023-05-17T18:07:27.165Z,19.27
2023-05-17T18:09:54.767Z,14.18
2023-05-17T18:12:22.377Z,15.27
2023-05-17T18:14:49.884Z,16.20
2023-05-17T18:17:17.219Z,14.40
2023-05-17T18:23:01.738Z,18.60
2023-05-17T18:25:29.189Z,15.82
2023-05-17T18:27:56.565Z,17.67
2023-05-17T18:30:24.878Z,15.10
2023-05-17T18:32:52.305Z,17.92
2023-05-17T18:35:19.802Z,14.98
2023-05-17T18:37:47.190Z,11.63
2023-05-17T18:40:15.026Z,14.95
2023-05-17T18:42:42.526Z,18.77
2023-05-17T18:45:10.999Z,15.40
2023-05-17T18:47:38.507Z,13.15
2023-05-17T18:50:07.522Z,14.88
2023-05-17T18:52:34.935Z,16.58
2023-05-17T18:55:02.307Z,14.95
2023-05-17T18:57:30.054Z,12.48
2023-05-17T18:59:57.436Z,18.13
2023-05-17T19:02:24.788Z,15.90
2023-05-17T19:04:52.424Z,13.88
2023-05-17T19:07:19.760Z,13.90
2023-05-17T19:09:49.467Z,16.33
2023-05-17T19:12:16.807Z,15.60
2023-05-17T19:14:44.738Z,13.10
2023-05-17T19:17:12.211Z,15.95
2023-05-17T19:19:39.617Z,13.77
2023-05-17T19:22:07.059Z,13.57
2023-05-17T19:24:35.418Z,9.52
2023-05-17T19:27:02.944Z,13.98
2023-05-17T19:29:32.645Z,13.68
2023-05-17T19:32:00.069Z,15.70
2023-05-17T19:34:27.560Z,13.05
2023-05-17T19:36:55.004Z,17.75
2023-05-17T19:39:22.452Z,19.77
2023-05-17T19:41:49.869Z,11.43
2023-05-17T19:44:17.301Z,17.58
2023-05-17T19:46:44.720Z,8.98
2023-05-17T19:49:12.412Z,15.60
2023-05-17T19:51:40.001Z,13.73
2023-05-17T19:54:07.418Z,11.50
2023-05-17T19:56:34.824Z,12.68
2023-05-17T19:59:03.811Z,11.38
2023-05-17T20:01:31.465Z,11.18
2023-05-17T20:03:58.905Z,13.45
2023-05-17T20:06:26.597Z,12.57
2023-05-17T20:08:54.006Z,16.05
2023-05-17T20:11:21.626Z,15.02
2023-05-17T20:13:49.053Z,11.07
2023-05-17T20:16:16.433Z,12.55
2023-05-17T20:18:44.727Z,14.27
2023-05-17T20:21:15.304Z,15.18
2023-05-17T20:23:42.947Z,13.40
2023-05-17T20:26:16.604Z,14.00
2023-05-17T20:28:47.207Z,14.85
2023-05-17T20:31:14.609Z,11.13
2023-05-17T20:33:44.205Z,14.27
2023-05-17T20:36:14.152Z,14.38
2023-05-17T20:38:42.451Z,15.55
2023-05-17T20:41:11.140Z,15.30
2023-05-17T20:43:38.604Z,14.30
2023-05-17T20:46:06.851Z,17.02
2023-05-17T20:48:34.967Z,14.18
2023-05-17T20:51:03.415Z,13.02
2023-05-17T20:53:31.337Z,11.93
2023-05-17T20:56:02.017Z,11.20
2023-05-17T20:58:29.477Z,15.77
2023-05-17T21:00:57.729Z,12.13
2023-05-17T21:03:28.382Z,10.18
2023-05-17T21:05:56.435Z,11.00
2023-05-17T21:08:23.997Z,13.02
2023-05-17T21:10:52.779Z,12.70
2023-05-17T21:13:21.696Z,10.90
2023-05-17T21:15:49.132Z,12.60
2023-05-17T21:18:16.478Z,11.65
2023-05-17T21:20:44.161Z,13.80
2023-05-17T21:23:14.716Z,12.45
2023-05-17T21:25:42.076Z,12.23
2023-05-17T21:28:09.627Z,9.18
2023-05-17T21:30:37.276Z,11.02
2023-05-17T21:33:05.627Z,7.25
2023-05-17T21:35:33.162Z,13.98
2023-05-17T21:38:00.622Z,14.45
2023-05-17T21:40:28.285Z,12.98
2023-05-17T21:42:56.413Z,15.05
2023-05-17T21:45:23.933Z,12.52
2023-05-17T21:47:51.627Z,11.20
2023-05-17T21:50:19.336Z,11.93
2023-05-17T21:52:46.751Z,13.00
2023-05-17T21:55:14.286Z,10.32
2023-05-17T21:57:42.151Z,14.52
2023-05-17T22:00:12.904Z,11.65
2023-05-17T22:02:43.280Z,9.98
2023-05-17T22:05:10.755Z,16.63
2023-05-17T22:07:38.723Z,14.93
2023-05-17T22:10:09.365Z,10.13
2023-05-17T22:12:40.940Z,14.65
2023-05-17T22:15:09.661Z,12.23
2023-05-17T22:17:47.847Z,11.07
2023-05-17T22:20:16.843Z,11.57
2023-05-17T22:22:44.273Z,12.65
2023-05-17T22:25:12.028Z,11.77
2023-05-17T22:27:39.397Z,13.32
2023-05-17T22:30:07.712Z,12.45
2023-05-17T22:32:37.356Z,11.82
2023-05-17T22:35:05.736Z,11.77
2023-05-17T22:37:34.058Z,11.23
2023-05-17T22:40:01.510Z,15.45
2023-05-17T22:42:28.925Z,9.25
2023-05-17T22:44:56.247Z,10.45
2023-05-17T22:47:26.615Z,12.00
2023-05-17T22:49:57.826Z,10.55
2023-05-17T22:52:25.179Z,10.55
2023-05-17T22:54:52.527Z,16.55
2023-05-17T22:57:19.822Z,15.10
2023-05-17T22:59:47.372Z,10.65
2023-05-17T23:02:14.808Z,14.75
2023-05-17T23:04:45.974Z,11.95
2023-05-17T23:07:14.959Z,13.18
2023-05-17T23:09:42.352Z,14.10
2023-05-17T23:12:14.164Z,7.78
2023-05-17T23:14:41.671Z,9.93
2023-05-17T23:17:09.955Z,14.55
2023-05-17T23:19:37.456Z,12.95
2023-05-17T23:22:06.502Z,12.85
2023-05-17T23:24:38.600Z,15.40
2023-05-17T23:27:10.367Z,13.70
2023-05-17T23:29:41.362Z,15.85
2023-05-17T23:32:08.771Z,13.85
2023-05-17T23:34:36.522Z,12.80
2023-05-17T23:37:03.873Z,14.50
2023-05-17T23:39:31.473Z,11.77
2023-05-17T23:41:59.228Z,10.80
2023-05-17T23:44:26.523Z,13.18
2023-05-17T23:46:56.251Z,12.30
2023-05-17T23:49:23.584Z,10.95
2023-05-17T23:51:51.017Z,10.93
2023-05-17T23:54:18.447Z,13.35
2023-05-17T23:56:45.791Z,13.05
2023-05-17T23:59:13.158Z,13.18
